Time;durP1;ratioP1;P1;durP2;ratioP2;P2;SDS_P1;SDS_P2;PMS_P1;PMS_P2;Temp;Humidity;BMP_temperature;BMP_pressure;BME280_temperature;BME280_humidity;BME280_pressure;Samples;Min_cycle;Max_cycle;Signal;HPM_P1;HPM_P2
2023/03/18 00:00:31;;;;;;;9.32;3.40;;;14.40;99.90;;;;;;2073161;28;20552;-73
2023/03/18 00:01:32;;;;;;;10.80;3.55;;;14.40;99.90;;;;;;2076455;28;20021;-73
2023/03/18 00:02:32;;;;;;;8.20;2.75;;;14.40;99.90;;;;;;2076235;28;20024;-73
2023/03/18 00:03:36;;;;;;;5.95;3.15;;;14.40;99.90;;;;;;2074570;28;20381;-73
2023/03/18 00:04:36;;;;;;;5.82;3.17;;;14.40;99.90;;;;;;2075056;28;20104;-73
2023/03/18 00:05:37;;;;;;;5.38;2.90;;;14.40;99.90;;;;;;2073467;28;20040;-73
2023/03/18 00:06:39;;;;;;;6.47;3.20;;;14.40;99.90;;;;;;2074890;28;20116;-73
2023/03/18 00:07:40;;;;;;;6.53;2.90;;;14.40;99.90;;;;;;2078044;28;20033;-73
2023/03/18 00:08:42;;;;;;;6.28;3.30;;;14.40;99.90;;;;;;2072959;28;20026;-73
2023/03/18 00:09:42;;;;;;;6.32;3.28;;;14.40;99.90;;;;;;2074397;28;20032;-73
2023/03/18 00:10:43;;;;;;;5.80;3.42;;;14.40;99.90;;;;;;2076246;28;20041;-73
2023/03/18 00:11:44;;;;;;;6.15;3.25;;;14.40;99.90;;;;;;2073356;28;20925;-73
2023/03/18 00:12:45;;;;;;;7.38;3.38;;;14.40;99.90;;;;;;2074156;28;20619;-73
2023/03/18 00:13:47;;;;;;;7.95;3.33;;;14.40;99.90;;;;;;2075371;28;20038;-73
2023/03/18 00:14:48;;;;;;;6.57;3.13;;;14.40;99.90;;;;;;2076330;28;20032;-73
2023/03/18 00:15:50;;;;;;;6.78;2.78;;;14.40;99.90;;;;;;2073870;28;20120;-73
2023/03/18 00:16:51;;;;;;;5.90;3.28;;;14.40;99.90;;;;;;2074655;28;20029;-73
2023/03/18 00:17:51;;;;;;;7.35;3.35;;;14.40;99.90;;;;;;2075331;28;20022;-73
2023/03/18 00:18:52;;;;;;;8.57;3.30;;;14.40;99.90;;;;;;2077708;28;20112;-73
2023/03/18 00:19:53;;;;;;;6.45;3.13;;;14.40;99.90;;;;;;2076235;28;20026;-73
2023/03/18 00:20:54;;;;;;;7.07;3.13;;;14.40;99.90;;;;;;2077874;28;20049;-73
2023/03/18 00:21:55;;;;;;;7.03;2.95;;;14.40;99.90;;;;;;2077340;28;20037;-73
2023/03/18 00:22:56;;;;;;;6.28;3.22;;;14.40;99.90;;;;;;2075271;28;20030;-73
2023/03/18 00:23:57;;;;;;;6.05;2.97;;;14.40;99.90;;;;;;2074402;28;20025;-73
2023/03/18 00:24:58;;;;;;;7.85;3.08;;;14.40;99.90;;;;;;2074525;28;21334;-73
2023/03/18 00:26:00;;;;;;;6.20;3.13;;;14.40;99.90;;;;;;2074687;28;20116;-73
2023/03/18 00:27:00;;;;;;;5.15;2.72;;;14.30;99.90;;;;;;2073953;28;20060;-73
2023/03/18 00:28:03;;;;;;;6.05;2.60;;;14.30;99.90;;;;;;2073340;28;20028;-73
2023/03/18 00:29:04;;;;;;;6.13;3.22;;;14.40;99.90;;;;;;2079286;28;20032;-73
2023/03/18 00:30:06;;;;;;;5.22;3.10;;;14.30;99.90;;;;;;2070981;28;20537;-73
2023/03/18 00:31:09;;;;;;;5.13;2.70;;;14.40;99.90;;;;;;2074376;28;20034;-73
2023/03/18 00:32:10;;;;;;;4.40;2.65;;;14.30;99.90;;;;;;2075836;28;20036;-73
2023/03/18 00:33:11;;;;;;;7.45;3.10;;;14.30;99.90;;;;;;2074033;28;20029;-73
2023/03/18 00:34:13;;;;;;;7.22;2.92;;;14.30;99.90;;;;;;2074520;28;20149;-73
2023/03/18 00:35:15;;;;;;;6.28;2.63;;;14.30;99.90;;;;;;2074602;28;20044;-73
2023/03/18 00:36:17;;;;;;;7.32;2.90;;;14.30;99.90;;;;;;2076631;28;20021;-73
2023/03/18 00:37:29;;;;;;;6.38;3.08;;;14.30;99.90;;;;;;2075827;28;20061;-73
2023/03/18 00:38:29;;;;;;;11.75;3.70;;;14.30;99.90;;;;;;2075234;28;20504;-73
2023/03/18 00:39:31;;;;;;;4.70;2.90;;;14.30;99.90;;;;;;2076279;28;20548;-73
2023/03/18 00:40:51;;;;;;;5.07;3.17;;;14.30;99.90;;;;;;2074630;28;20025;-73
2023/03/18 00:41:56;;;;;;;7.07;2.60;;;14.30;99.90;;;;;;2074317;28;20022;-73
2023/03/18 00:43:06;;;;;;;6.40;2.83;;;14.20;99.90;;;;;;2077630;28;20022;-73
2023/03/18 00:44:07;;;;;;;7.47;2.80;;;14.20;99.90;;;;;;2076916;28;20101;-73
2023/03/18 00:45:10;;;;;;;6.10;2.13;;;14.20;99.90;;;;;;2074324;28;20461;-73
2023/03/18 00:46:16;;;;;;;4.00;2.50;;;14.20;99.90;;;;;;2075446;28;20162;-73
2023/03/18 00:47:17;;;;;;;7.35;2.92;;;14.20;99.90;;;;;;2076341;28;20044;-73
2023/03/18 00:48:17;;;;;;;4.50;2.38;;;14.20;99.90;;;;;;2076830;28;20485;-73
2023/03/18 00:49:18;;;;;;;5.25;2.30;;;14.20;99.90;;;;;;2074089;28;20026;-73
2023/03/18 00:50:19;;;;;;;8.45;3.15;;;14.20;99.90;;;;;;2072410;28;20057;-73
2023/03/18 00:51:21;;;;;;;6.60;2.70;;;14.20;99.90;;;;;;2074889;28;20029;-73
2023/03/18 00:52:22;;;;;;;8.57;2.85;;;14.20;99.90;;;;;;2082982;28;20032;-73
2023/03/18 00:53:24;;;;;;;6.10;2.75;;;14.20;99.90;;;;;;2081652;28;21616;-73
2023/03/18 00:54:25;;;;;;;5.35;2.60;;;14.20;99.90;;;;;;2076864;28;20029;-73
2023/03/18 00:55:26;;;;;;;6.90;2.60;;;14.20;99.90;;;;;;2076746;28;20037;-73
2023/03/18 00:56:29;;;;;;;4.75;2.50;;;14.20;99.90;;;;;;2080678;28;20029;-73
2023/03/18 00:57:30;;;;;;;6.68;2.72;;;14.20;99.90;;;;;;2073304;28;20088;-73
2023/03/18 00:58:31;;;;;;;8.52;3.08;;;14.10;99.90;;;;;;2071669;28;20115;-73
2023/03/18 00:59:32;;;;;;;8.65;2.97;;;14.20;99.90;;;;;;2077487;28;20136;-73
2023/03/18 01:00:32;;;;;;;5.97;2.70;;;14.10;99.90;;;;;;2078770;28;20067;-73
2023/03/18 01:01:34;;;;;;;5.20;2.40;;;14.10;99.90;;;;;;2074074;28;20068;-73
2023/03/18 01:02:34;;;;;;;5.50;2.42;;;14.10;99.90;;;;;;2073710;28;20692;-73
2023/03/18 01:03:35;;;;;;;6.88;2.70;;;14.10;99.90;;;;;;2073936;28;20025;-73
2023/03/18 01:04:35;;;;;;;8.65;3.15;;;14.20;99.90;;;;;;2072904;28;20030;-73
2023/03/18 01:05:37;;;;;;;4.88;2.33;;;14.10;99.90;;;;;;2073873;28;20034;-73
2023/03/18 01:06:38;;;;;;;4.93;2.80;;;14.10;99.90;;;;;;2072481;28;20029;-73
2023/03/18 01:07:38;;;;;;;7.20;2.40;;;14.10;99.90;;;;;;2076176;28;20025;-73
2023/03/18 01:08:40;;;;;;;9.07;2.65;;;14.20;99.90;;;;;;2073278;28;20137;-73
2023/03/18 01:09:42;;;;;;;6.47;2.50;;;14.10;99.90;;;;;;2073539;28;20041;-73
2023/03/18 01:10:43;;;;;;;7.75;2.67;;;14.10;99.90;;;;;;2074652;28;20083;-73
2023/03/18 01:11:43;;;;;;;5.13;2.55;;;14.10;99.90;;;;;;2074093;28;21098;-73
2023/03/18 01:12:47;;;;;;;5.07;2.80;;;14.10;99.90;;;;;;2075871;28;20056;-73
2023/03/18 01:13:48;;;;;;;5.65;2.97;;;14.10;99.90;;;;;;2076043;28;20374;-73
2023/03/18 01:14:48;;;;;;;6.72;2.60;;;14.10;99.90;;;;;;2073027;28;20034;-73
2023/03/18 01:15:50;;;;;;;7.63;2.97;;;14.10;99.90;;;;;;2073591;28;20053;-73
2023/03/18 01:16:51;;;;;;;7.47;2.65;;;14.10;99.90;;;;;;2072975;28;20530;-73
2023/03/18 01:17:55;;;;;;;7.43;3.10;;;14.10;99.90;;;;;;2074193;28;20033;-73
2023/03/18 01:18:57;;;;;;;6.53;2.97;;;14.10;99.90;;;;;;2075554;28;20361;-73
2023/03/18 01:19:57;;;;;;;5.32;2.60;;;14.10;99.90;;;;;;2073113;28;20132;-73
2023/03/18 01:21:01;;;;;;;5.55;2.30;;;14.10;99.90;;;;;;2068137;28;20647;-73
2023/03/18 01:22:03;;;;;;;8.77;2.78;;;14.10;99.90;;;;;;2075952;28;20072;-73
2023/03/18 01:23:05;;;;;;;7.28;2.97;;;14.10;99.90;;;;;;2080989;28;20022;-73
2023/03/18 01:24:06;;;;;;;7.18;2.67;;;14.10;99.90;;;;;;2075968;28;20033;-73
2023/03/18 01:25:08;;;;;;;7.38;2.80;;;14.10;99.90;;;;;;2075724;28;20028;-73
2023/03/18 01:26:09;;;;;;;5.45;2.40;;;14.10;99.90;;;;;;2072887;28;20069;-73
2023/03/18 01:27:10;;;;;;;6.85;2.75;;;14.00;99.90;;;;;;2074576;28;20047;-73
2023/03/18 01:28:12;;;;;;;7.43;2.80;;;14.00;99.90;;;;;;2074832;28;20025;-73
2023/03/18 01:29:13;;;;;;;7.03;3.30;;;14.00;99.90;;;;;;2075245;28;20053;-73
2023/03/18 01:30:14;;;;;;;7.10;3.13;;;14.00;99.90;;;;;;2074323;28;20010;-73
2023/03/18 01:31:15;;;;;;;9.65;3.45;;;14.00;99.90;;;;;;2071896;28;20038;-73
2023/03/18 01:32:16;;;;;;;8.02;3.25;;;14.00;99.90;;;;;;2072929;28;20022;-73
2023/03/18 01:33:16;;;;;;;9.02;3.20;;;14.00;99.90;;;;;;2077750;28;20052;-73
2023/03/18 01:34:17;;;;;;;7.95;3.17;;;14.00;99.90;;;;;;2076686;28;20108;-73
2023/03/18 01:35:18;;;;;;;5.97;2.97;;;13.90;99.90;;;;;;2073030;28;20107;-73
2023/03/18 01:36:19;;;;;;;8.20;2.92;;;13.90;99.90;;;;;;2072897;28;20086;-73
2023/03/18 01:37:20;;;;;;;7.05;2.75;;;13.90;99.90;;;;;;2074401;28;20030;-73
2023/03/18 01:38:22;;;;;;;5.68;3.00;;;13.90;99.90;;;;;;2076848;28;20014;-73
2023/03/18 01:39:23;;;;;;;7.30;3.20;;;13.90;99.90;;;;;;2075495;28;20053;-73
2023/03/18 01:40:27;;;;;;;5.43;2.88;;;13.90;99.90;;;;;;2076746;28;20028;-73
2023/03/18 01:41:27;;;;;;;5.50;2.60;;;13.80;99.90;;;;;;2078067;28;20032;-73
2023/03/18 01:42:28;;;;;;;6.38;2.67;;;13.80;99.90;;;;;;2073570;28;20033;-73
2023/03/18 01:43:33;;;;;;;6.38;2.70;;;13.80;99.90;;;;;;2074340;28;20026;-73
2023/03/18 01:44:34;;;;;;;8.27;3.80;;;13.80;99.90;;;;;;2074307;28;20080;-73
2023/03/18 01:45:35;;;;;;;6.63;2.38;;;13.80;99.90;;;;;;2075561;28;20026;-73
2023/03/18 01:46:39;;;;;;;6.35;2.67;;;13.80;99.90;;;;;;2075278;28;20026;-73
2023/03/18 01:47:40;;;;;;;6.10;2.53;;;13.80;99.90;;;;;;2074226;28;20036;-73
2023/03/18 01:48:40;;;;;;;5.25;2.95;;;13.80;99.90;;;;;;2077166;28;20034;-73
2023/03/18 01:49:47;;;;;;;6.68;2.53;;;13.80;99.90;;;;;;2075793;28;20036;-73
2023/03/18 01:50:53;;;;;;;7.15;3.20;;;13.80;99.90;;;;;;2076128;28;20061;-73
2023/03/18 01:52:02;;;;;;;9.60;3.53;;;13.80;99.90;;;;;;2075091;28;20030;-73
2023/03/18 01:53:08;;;;;;;5.03;2.67;;;13.80;99.90;;;;;;2075760;28;20029;-73
2023/03/18 01:54:09;;;;;;;4.15;2.47;;;13.80;99.90;;;;;;2083891;28;20095;-73
2023/03/18 01:55:20;;;;;;;5.55;2.63;;;13.80;99.90;;;;;;2081742;28;20038;-73
2023/03/18 01:56:21;;;;;;;6.68;3.10;;;13.80;99.90;;;;;;2076328;28;20044;-73
2023/03/18 01:57:22;;;;;;;6.97;2.90;;;13.70;99.90;;;;;;2075108;28;20080;-73
2023/03/18 01:58:27;;;;;;;7.30;2.85;;;13.70;99.90;;;;;;2076226;28;20113;-73
2023/03/18 01:59:32;;;;;;;7.32;2.83;;;13.70;99.90;;;;;;2077344;28;20089;-73
2023/03/18 02:00:38;;;;;;;6.30;2.85;;;13.70;99.90;;;;;;2074658;28;20037;-72
2023/03/18 02:02:00;;;;;;;6.97;2.80;;;13.70;99.90;;;;;;2073879;28;20088;-72
2023/03/18 02:03:03;;;;;;;9.68;3.17;;;13.70;99.90;;;;;;2075989;28;20025;-73
2023/03/18 02:04:06;;;;;;;8.45;2.90;;;13.70;99.90;;;;;;2076344;28;20014;-72
2023/03/18 02:05:10;;;;;;;4.90;2.90;;;13.70;99.90;;;;;;2074997;28;20041;-72
2023/03/18 02:06:11;;;;;;;7.63;2.90;;;13.70;99.90;;;;;;2076007;28;20018;-72
2023/03/18 02:07:24;;;;;;;7.47;3.17;;;13.70;99.90;;;;;;2078194;28;20021;-72
2023/03/18 02:08:24;;;;;;;6.97;3.15;;;13.70;99.90;;;;;;2078641;28;20072;-72
2023/03/18 02:09:25;;;;;;;5.03;2.45;;;13.70;99.90;;;;;;2078093;28;20038;-72
2023/03/18 02:10:29;;;;;;;9.35;2.72;;;13.70;99.90;;;;;;2076393;28;20045;-72
2023/03/18 02:11:32;;;;;;;8.38;2.90;;;13.70;99.90;;;;;;2077785;28;20513;-72
2023/03/18 02:12:37;;;;;;;7.18;2.92;;;13.70;99.90;;;;;;2075897;28;20018;-72
2023/03/18 02:13:41;;;;;;;12.73;3.42;;;13.80;99.90;;;;;;2074817;28;20843;-73
2023/03/18 02:14:42;;;;;;;6.20;2.60;;;13.80;99.90;;;;;;2074120;28;20037;-72
2023/03/18 02:16:06;;;;;;;8.23;3.08;;;13.80;99.90;;;;;;2075458;28;20113;-72
2023/03/18 02:17:18;;;;;;;6.10;2.50;;;13.80;99.90;;;;;;2082721;28;20027;-72
2023/03/18 02:18:44;;;;;;;7.38;3.20;;;13.80;99.90;;;;;;2081803;28;20468;-72
2023/03/18 02:20:23;;;;;;;8.57;3.20;;;13.70;99.90;;;;;;2081698;28;20052;-73
2023/03/18 02:21:49;;;;;;;7.22;2.42;;;13.70;99.90;;;;;;2078287;28;20389;-72
2023/03/18 02:22:56;;;;;;;11.93;2.85;;;13.70;99.90;;;;;;2074419;28;20390;-72
2023/03/18 02:24:04;;;;;;;8.07;2.72;;;13.70;99.90;;;;;;2074047;28;20381;-72
2023/03/18 02:25:29;;;;;;;11.68;2.92;;;13.70;99.90;;;;;;2075072;28;20033;-72
2023/03/18 02:26:47;;;;;;;5.57;2.67;;;13.70;99.90;;;;;;2073738;28;20033;-72
2023/03/18 02:27:52;;;;;;;5.47;2.53;;;13.70;99.90;;;;;;2075459;28;20025;-72
2023/03/18 02:28:57;;;;;;;6.97;2.70;;;13.70;99.90;;;;;;2075279;28;20024;-72
2023/03/18 02:30:01;;;;;;;9.15;2.83;;;13.70;99.90;;;;;;2073983;28;20088;-72
2023/03/18 02:31:08;;;;;;;7.78;2.75;;;13.70;99.90;;;;;;2074363;28;20418;-72
2023/03/18 02:32:10;;;;;;;8.38;2.40;;;13.70;99.90;;;;;;2075202;28;20040;-72
2023/03/18 02:33:12;;;;;;;6.68;3.10;;;13.70;99.90;;;;;;2076048;28;20030;-72
2023/03/18 02:34:14;;;;;;;7.55;3.15;;;13.80;99.90;;;;;;2078510;28;20481;-72
2023/03/18 02:35:15;;;;;;;10.00;3.67;;;13.80;99.90;;;;;;2078049;28;20036;-72
2023/03/18 02:36:26;;;;;;;7.32;2.95;;;13.80;99.90;;;;;;2075029;28;20029;-72
2023/03/18 02:37:27;;;;;;;6.68;2.58;;;13.80;99.90;;;;;;2074543;28;20017;-72
2023/03/18 02:38:28;;;;;;;5.88;2.60;;;13.80;99.90;;;;;;2076673;28;20029;-72
2023/03/18 02:39:30;;;;;;;9.43;3.28;;;13.80;99.90;;;;;;2075882;28;20029;-72
2023/03/18 02:40:36;;;;;;;5.70;2.83;;;13.80;99.90;;;;;;2074463;28;20044;-72
2023/03/18 02:41:37;;;;;;;7.28;2.85;;;13.80;99.90;;;;;;2074585;28;20033;-72
2023/03/18 02:42:37;;;;;;;4.70;2.42;;;13.80;99.90;;;;;;2074335;28;20025;-72
2023/03/18 02:43:38;;;;;;;5.75;2.60;;;13.80;99.90;;;;;;2074400;28;20049;-72
2023/03/18 02:44:43;;;;;;;6.05;2.30;;;13.80;99.90;;;;;;2076227;28;20033;-72
2023/03/18 02:45:57;;;;;;;7.40;2.38;;;13.80;99.90;;;;;;2074037;28;20029;-72
2023/03/18 02:47:07;;;;;;;4.45;2.67;;;13.80;99.90;;;;;;2077254;28;20025;-72
2023/03/18 02:48:13;;;;;;;4.90;2.15;;;13.80;99.90;;;;;;2076305;28;20026;-72
2023/03/18 02:49:16;;;;;;;6.80;2.53;;;13.80;99.90;;;;;;2082426;28;20034;-72
2023/03/18 02:50:17;;;;;;;8.27;2.95;;;13.80;99.90;;;;;;2075185;28;20695;-72
2023/03/18 02:51:19;;;;;;;4.57;2.42;;;13.80;99.90;;;;;;2075622;28;20112;-72
2023/03/18 02:52:20;;;;;;;6.03;1.98;;;13.80;99.90;;;;;;2076015;28;20045;-72
2023/03/18 02:53:20;;;;;;;8.95;3.33;;;13.80;99.90;;;;;;2074459;28;20022;-72
2023/03/18 02:54:25;;;;;;;7.93;2.85;;;13.80;99.90;;;;;;2075009;28;20029;-72
2023/03/18 02:55:26;;;;;;;6.10;2.55;;;13.80;99.90;;;;;;2074273;28;20036;-72
2023/03/18 02:56:27;;;;;;;7.70;3.15;;;13.80;99.90;;;;;;2074806;28;20028;-72
2023/03/18 02:57:27;;;;;;;6.22;2.67;;;13.80;99.90;;;;;;2073121;28;20029;-72
2023/03/18 02:58:28;;;;;;;4.57;2.33;;;13.80;99.90;;;;;;2083168;28;20068;-72
2023/03/18 02:59:31;;;;;;;8.40;3.03;;;13.80;99.90;;;;;;2076142;28;20108;-72
2023/03/18 03:00:31;;;;;;;10.50;3.00;;;13.80;99.90;;;;;;2075346;28;20020;-72
2023/03/18 03:01:34;;;;;;;8.20;3.15;;;13.80;99.90;;;;;;2075106;28;20033;-72
2023/03/18 03:02:35;;;;;;;4.63;2.60;;;13.80;99.90;;;;;;2075654;28;20067;-72
2023/03/18 03:03:37;;;;;;;5.45;2.63;;;13.80;99.90;;;;;;2076217;28;20029;-73
2023/03/18 03:04:38;;;;;;;5.78;2.40;;;13.80;99.90;;;;;;2075896;28;20030;-72
2023/03/18 03:05:39;;;;;;;4.25;2.33;;;13.80;99.90;;;;;;2075163;28;20045;-72
2023/03/18 03:06:40;;;;;;;6.25;2.45;;;13.80;99.90;;;;;;2077592;28;20492;-72
2023/03/18 03:07:41;;;;;;;5.63;2.53;;;13.80;99.90;;;;;;2075836;28;20500;-72
2023/03/18 03:08:41;;;;;;;9.68;3.08;;;13.80;99.90;;;;;;2075549;28;20022;-72
2023/03/18 03:09:42;;;;;;;5.93;2.40;;;13.80;99.90;;;;;;2075484;28;20032;-72
2023/03/18 03:10:43;;;;;;;7.45;2.67;;;13.70;99.90;;;;;;2074288;28;20037;-72
2023/03/18 03:11:45;;;;;;;4.95;2.70;;;13.70;99.90;;;;;;2074964;28;20033;-72
2023/03/18 03:12:46;;;;;;;8.55;2.50;;;13.70;99.90;;;;;;2075941;28;20068;-72
2023/03/18 03:13:47;;;;;;;4.35;2.45;;;13.70;99.90;;;;;;2075356;28;20032;-72
2023/03/18 03:14:47;;;;;;;4.60;2.33;;;13.70;99.90;;;;;;2075570;28;20113;-72
2023/03/18 03:15:48;;;;;;;5.20;2.28;;;13.70;99.90;;;;;;2074761;28;20025;-72
2023/03/18 03:16:49;;;;;;;5.05;2.33;;;13.70;99.90;;;;;;2075693;28;20457;-72
2023/03/18 03:17:49;;;;;;;3.38;2.28;;;13.60;99.90;;;;;;2073034;28;20018;-72
2023/03/18 03:18:50;;;;;;;3.70;2.47;;;13.60;99.90;;;;;;2075049;28;20545;-72
2023/03/18 03:19:51;;;;;;;5.45;2.60;;;13.60;99.90;;;;;;2074638;28;20501;-72
2023/03/18 03:20:52;;;;;;;4.18;2.40;;;13.60;99.90;;;;;;2076828;28;20457;-72
2023/03/18 03:21:52;;;;;;;5.28;2.58;;;13.60;99.90;;;;;;2074180;28;20013;-72
2023/03/18 03:22:54;;;;;;;2.65;2.00;;;13.50;99.90;;;;;;2075795;28;20022;-72
2023/03/18 03:23:54;;;;;;;5.75;2.75;;;13.50;99.90;;;;;;2077847;28;20029;-72
2023/03/18 03:24:55;;;;;;;5.03;2.30;;;13.50;99.90;;;;;;2077952;28;20053;-72
2023/03/18 03:25:56;;;;;;;5.15;2.10;;;13.50;99.90;;;;;;2074349;28;20036;-72
2023/03/18 03:26:57;;;;;;;6.20;2.78;;;13.50;99.90;;;;;;2077312;28;20030;-72
2023/03/18 03:27:57;;;;;;;5.35;2.65;;;13.50;99.90;;;;;;2076692;28;20041;-72
2023/03/18 03:28:59;;;;;;;5.00;2.25;;;13.40;99.90;;;;;;2074236;28;20434;-72
2023/03/18 03:30:00;;;;;;;5.65;2.67;;;13.40;99.90;;;;;;2074625;28;20026;-72
2023/03/18 03:31:01;;;;;;;5.47;2.92;;;13.40;99.90;;;;;;2075535;28;20021;-72
2023/03/18 03:32:01;;;;;;;7.07;2.50;;;13.40;99.90;;;;;;2076481;28;20141;-72
2023/03/18 03:33:03;;;;;;;3.75;2.28;;;13.30;99.90;;;;;;2075290;28;20486;-72
2023/03/18 03:34:04;;;;;;;5.25;2.70;;;13.30;99.90;;;;;;2074952;28;20030;-72
2023/03/18 03:35:07;;;;;;;4.07;2.38;;;13.30;99.90;;;;;;2073848;28;20034;-72
2023/03/18 03:36:13;;;;;;;4.65;2.55;;;13.30;99.90;;;;;;2072917;28;20115;-72
2023/03/18 03:37:14;;;;;;;6.95;2.60;;;13.20;99.90;;;;;;2072179;28;20530;-72
2023/03/18 03:38:15;;;;;;;5.47;2.75;;;13.20;99.90;;;;;;2076842;28;20417;-72
2023/03/18 03:39:15;;;;;;;4.60;2.50;;;13.20;99.90;;;;;;2076299;28;20168;-72
2023/03/18 03:40:18;;;;;;;6.95;2.60;;;13.20;99.90;;;;;;2073897;28;20064;-72
2023/03/18 03:41:18;;;;;;;5.30;2.28;;;13.10;99.90;;;;;;2074184;28;20018;-72
2023/03/18 03:42:19;;;;;;;5.78;2.35;;;13.10;99.90;;;;;;2075616;28;20022;-72
2023/03/18 03:43:20;;;;;;;5.72;2.40;;;13.10;99.90;;;;;;2075132;28;20037;-72
2023/03/18 03:44:20;;;;;;;5.78;2.55;;;13.10;99.90;;;;;;2075346;28;20390;-72
2023/03/18 03:45:21;;;;;;;5.68;2.53;;;13.10;99.90;;;;;;2074472;28;20072;-72
2023/03/18 03:46:22;;;;;;;6.43;3.00;;;13.00;99.90;;;;;;2073709;28;20402;-72
2023/03/18 03:47:22;;;;;;;8.32;3.08;;;13.00;99.90;;;;;;2074341;28;20025;-72
2023/03/18 03:48:23;;;;;;;6.10;2.65;;;13.00;99.90;;;;;;2076013;28;20018;-72
2023/03/18 03:49:24;;;;;;;7.80;2.60;;;13.00;99.90;;;;;;2067579;28;20025;-72
2023/03/18 03:50:25;;;;;;;3.75;2.53;;;13.00;99.90;;;;;;2075621;28;20029;-72
2023/03/18 03:51:25;;;;;;;4.63;2.83;;;13.00;99.90;;;;;;2074476;28;20022;-72
2023/03/18 03:52:27;;;;;;;3.20;2.35;;;12.90;99.90;;;;;;2075562;28;20018;-72
2023/03/18 03:53:28;;;;;;;6.30;2.78;;;13.00;99.90;;;;;;2077173;28;20017;-72
2023/03/18 03:54:29;;;;;;;4.65;2.35;;;12.90;99.90;;;;;;2078482;28;20036;-72
2023/03/18 03:55:30;;;;;;;7.90;2.35;;;12.90;99.90;;;;;;2073524;28;20020;-72
2023/03/18 03:56:30;;;;;;;5.97;2.78;;;12.90;99.90;;;;;;2074143;28;20036;-72
2023/03/18 03:57:32;;;;;;;5.10;2.90;;;12.90;99.90;;;;;;2071487;28;20517;-72
2023/03/18 03:58:33;;;;;;;7.32;2.90;;;12.80;99.90;;;;;;2074205;28;20032;-72
2023/03/18 03:59:33;;;;;;;9.10;2.58;;;12.80;99.90;;;;;;2073774;28;20440;-72
2023/03/18 04:00:34;;;;;;;7.60;2.92;;;12.80;99.90;;;;;;2074240;28;20086;-73
2023/03/18 04:01:35;;;;;;;6.22;2.83;;;12.80;99.90;;;;;;2075968;28;20037;-72
2023/03/18 04:02:36;;;;;;;4.43;2.28;;;12.80;99.90;;;;;;2075981;28;20038;-72
2023/03/18 04:03:36;;;;;;;6.25;2.83;;;12.70;99.90;;;;;;2073776;28;20132;-72
2023/03/18 04:04:37;;;;;;;6.22;2.20;;;12.80;99.90;;;;;;2074475;28;20033;-72
2023/03/18 04:05:38;;;;;;;5.15;2.95;;;12.70;99.90;;;;;;2080333;28;20140;-72
2023/03/18 04:06:39;;;;;;;4.50;2.15;;;12.70;99.90;;;;;;2079868;28;20029;-72
2023/03/18 04:07:40;;;;;;;4.90;2.58;;;12.60;99.90;;;;;;2074853;28;20116;-72
2023/03/18 04:08:41;;;;;;;3.15;2.20;;;12.70;99.90;;;;;;2077514;28;20149;-72
2023/03/18 04:09:41;;;;;;;3.78;2.40;;;12.60;99.90;;;;;;2078847;28;20030;-72
2023/03/18 04:10:42;;;;;;;5.93;2.72;;;12.60;99.90;;;;;;2073617;28;20116;-72
2023/03/18 04:11:43;;;;;;;6.53;2.78;;;12.60;99.90;;;;;;2075775;28;20034;-72
2023/03/18 04:12:45;;;;;;;5.78;2.90;;;12.50;99.90;;;;;;2074647;28;20605;-72
2023/03/18 04:13:45;;;;;;;6.65;2.83;;;12.50;99.90;;;;;;2074204;28;20038;-72
2023/03/18 04:14:46;;;;;;;7.22;3.05;;;12.50;99.90;;;;;;2073464;28;20029;-72
2023/03/18 04:15:47;;;;;;;4.57;2.72;;;12.50;99.90;;;;;;2074217;28;20504;-72
2023/03/18 04:16:47;;;;;;;3.42;2.25;;;12.50;99.90;;;;;;2075714;28;20565;-72
2023/03/18 04:17:49;;;;;;;6.47;2.80;;;12.40;99.90;;;;;;2075389;28;20032;-72
2023/03/18 04:18:49;;;;;;;4.38;2.70;;;12.40;99.90;;;;;;2077631;28;20768;-72
2023/03/18 04:19:50;;;;;;;5.90;2.85;;;12.40;99.90;;;;;;2074566;28;20433;-72
2023/03/18 04:20:51;;;;;;;4.88;2.55;;;12.30;99.90;;;;;;2077434;28;20073;-72
2023/03/18 04:21:52;;;;;;;6.88;3.13;;;12.30;99.90;;;;;;2075465;28;20036;-72
2023/03/18 04:22:53;;;;;;;8.57;3.30;;;12.30;99.90;;;;;;2074280;28;20029;-72
2023/03/18 04:23:53;;;;;;;8.15;3.28;;;12.30;99.90;;;;;;2074170;28;20095;-72
2023/03/18 04:24:54;;;;;;;5.88;2.92;;;12.20;99.90;;;;;;2072553;28;20072;-72
2023/03/18 04:25:54;;;;;;;6.55;3.15;;;12.20;99.90;;;;;;2074756;28;20064;-72
2023/03/18 04:26:55;;;;;;;7.97;3.30;;;12.20;99.90;;;;;;2074417;28;20035;-72
2023/03/18 04:27:56;;;;;;;5.65;3.72;;;12.20;99.90;;;;;;2073575;28;20140;-72
2023/03/18 04:28:56;;;;;;;5.85;3.33;;;12.10;99.90;;;;;;2072145;28;20409;-72
2023/03/18 04:29:57;;;;;;;10.25;3.40;;;12.10;99.90;;;;;;2071774;28;20826;-72
2023/03/18 04:30:58;;;;;;;5.07;3.50;;;12.10;99.90;;;;;;2075170;28;20101;-72
2023/03/18 04:31:58;;;;;;;6.03;3.22;;;12.10;99.90;;;;;;2074057;28;20036;-72
2023/03/18 04:33:00;;;;;;;5.95;3.42;;;12.10;99.90;;;;;;2073438;28;20048;-72
2023/03/18 04:34:01;;;;;;;5.50;3.13;;;12.10;99.90;;;;;;2080341;28;20026;-72
2023/03/18 04:35:02;;;;;;;6.88;3.70;;;12.10;99.90;;;;;;2077069;28;20112;-72
2023/03/18 04:36:03;;;;;;;8.52;4.32;;;12.00;99.90;;;;;;2074379;28;20481;-72
2023/03/18 04:37:03;;;;;;;6.22;3.53;;;12.10;99.90;;;;;;2075342;28;20029;-72
2023/03/18 04:38:04;;;;;;;6.70;3.50;;;12.10;99.90;;;;;;2074614;28;20119;-72
2023/03/18 04:39:05;;;;;;;5.40;3.30;;;12.10;99.90;;;;;;2074100;28;20026;-72
2023/03/18 04:40:06;;;;;;;5.63;3.75;;;12.10;99.90;;;;;;2077127;28;20029;-72
2023/03/18 04:41:06;;;;;;;5.82;3.33;;;12.10;99.90;;;;;;2078115;28;20445;-72
2023/03/18 04:42:07;;;;;;;7.53;3.42;;;12.10;99.90;;;;;;2075623;28;20033;-72
2023/03/18 04:43:08;;;;;;;5.55;3.55;;;12.00;99.90;;;;;;2075813;28;20025;-72
2023/03/18 04:44:09;;;;;;;7.78;3.63;;;12.10;99.90;;;;;;2075199;28;20033;-72
2023/03/18 04:45:10;;;;;;;8.15;3.65;;;12.10;99.90;;;;;;2074022;28;20028;-72
2023/03/18 04:46:11;;;;;;;5.45;3.95;;;12.10;99.90;;;;;;2075709;28;20033;-72
2023/03/18 04:47:12;;;;;;;6.55;3.67;;;12.20;99.90;;;;;;2075121;28;20551;-72
2023/03/18 04:48:13;;;;;;;6.03;3.63;;;12.20;99.90;;;;;;2080040;28;20030;-72
2023/03/18 04:49:13;;;;;;;6.75;3.70;;;12.20;99.90;;;;;;2077492;28;20024;-72
2023/03/18 04:50:14;;;;;;;7.32;3.53;;;12.20;99.90;;;;;;2072375;28;20034;-72
2023/03/18 04:51:14;;;;;;;6.70;3.85;;;12.20;99.90;;;;;;2078166;28;20512;-72
2023/03/18 04:52:16;;;;;;;8.63;4.00;;;12.20;99.90;;;;;;2077504;28;20028;-72
2023/03/18 04:53:16;;;;;;;6.95;4.07;;;12.20;99.90;;;;;;2082556;28;20561;-72
2023/03/18 04:54:17;;;;;;;9.18;4.43;;;12.20;99.90;;;;;;2081224;28;20496;-72
2023/03/18 04:55:19;;;;;;;7.88;4.20;;;12.20;99.90;;;;;;2073400;28;20029;-72
2023/03/18 04:56:20;;;;;;;6.75;4.20;;;12.30;99.90;;;;;;2075423;28;20014;-72
2023/03/18 04:57:20;;;;;;;5.93;3.60;;;12.30;99.90;;;;;;2076464;28;20026;-72
2023/03/18 04:58:22;;;;;;;5.68;4.07;;;12.30;99.90;;;;;;2073645;28;20022;-72
2023/03/18 04:59:22;;;;;;;6.20;3.88;;;12.30;99.90;;;;;;2076576;28;20022;-72
2023/03/18 05:00:23;;;;;;;7.15;4.05;;;12.30;99.90;;;;;;2074498;28;20112;-72
2023/03/18 05:01:23;;;;;;;4.80;4.13;;;12.40;99.90;;;;;;2073062;28;20018;-72
2023/03/18 05:02:24;;;;;;;8.13;4.38;;;12.40;99.90;;;;;;2074549;28;20078;-72
2023/03/18 05:03:25;;;;;;;9.52;4.78;;;12.40;99.90;;;;;;2075933;28;20686;-72
2023/03/18 05:04:26;;;;;;;8.07;3.90;;;12.40;99.90;;;;;;2074245;28;20040;-72
2023/03/18 05:05:27;;;;;;;10.68;4.40;;;12.40;99.90;;;;;;2075160;28;20018;-72
2023/03/18 05:06:30;;;;;;;7.07;4.25;;;12.40;99.90;;;;;;2073339;28;20029;-72
2023/03/18 05:07:31;;;;;;;7.68;4.03;;;12.40;99.90;;;;;;2074522;28;20025;-72
2023/03/18 05:08:32;;;;;;;6.15;4.00;;;12.50;99.90;;;;;;2076922;28;20663;-72
2023/03/18 05:09:33;;;;;;;7.95;4.18;;;12.50;99.90;;;;;;2077945;28;20030;-72
2023/03/18 05:10:34;;;;;;;6.72;3.70;;;12.50;99.90;;;;;;2080214;28;20017;-72
2023/03/18 05:11:35;;;;;;;6.25;3.88;;;12.50;99.90;;;;;;2075782;28;20049;-72
2023/03/18 05:12:36;;;;;;;8.80;4.10;;;12.60;99.90;;;;;;2074796;28;20424;-72
2023/03/18 05:13:36;;;;;;;6.82;4.03;;;12.50;99.90;;;;;;2078100;28;20088;-72
2023/03/18 05:14:37;;;;;;;12.00;4.55;;;12.50;99.90;;;;;;2079027;28;20072;-73
2023/03/18 05:15:37;;;;;;;7.07;4.38;;;12.60;99.90;;;;;;2075263;28;20627;-72
2023/03/18 05:16:38;;;;;;;10.15;4.20;;;12.60;99.90;;;;;;2074509;28;20448;-72
2023/03/18 05:17:39;;;;;;;8.20;4.07;;;12.60;99.90;;;;;;2075708;28;20742;-72
2023/03/18 05:18:40;;;;;;;7.88;4.40;;;12.60;99.90;;;;;;2075151;28;20030;-72
2023/03/18 05:19:46;;;;;;;7.72;4.25;;;12.60;99.90;;;;;;2075025;28;20021;-72
2023/03/18 05:20:47;;;;;;;5.75;3.55;;;12.70;99.90;;;;;;2075982;28;20025;-72
2023/03/18 05:21:47;;;;;;;7.43;3.97;;;12.70;99.90;;;;;;2077009;28;20112;-72
2023/03/18 05:22:48;;;;;;;8.13;4.00;;;12.70;99.90;;;;;;2077624;28;20030;-72
2023/03/18 05:23:48;;;;;;;7.05;4.47;;;12.70;99.90;;;;;;2078276;28;20022;-72